Time;durP1;ratioP1;P1;durP2;ratioP2;P2;SDS_P1;SDS_P2;PMS_P1;PMS_P2;Temp;Humidity;BMP_temperature;BMP_pressure;BME280_temperature;BME280_humidity;BME280_pressure;Samples;Min_cycle;Max_cycle;Signal;HPM_P1;HPM_P2
2023/01/01 00:00:14;;;;;;;117.83;49.17;;;;;;;;;;5030565;28;20451;-69
2023/01/01 00:02:41;;;;;;;106.50;41.73;;;;;;;;;;5032260;28;20471;-69
2023/01/01 00:05:08;;;;;;;114.30;46.10;;;;;;;;;;5034779;28;20449;-69
2023/01/01 00:07:35;;;;;;;94.73;33.23;;;;;;;;;;5034610;28;20445;-69
2023/01/01 00:12:49;;;;;;;90.30;27.20;;;;;;;;;;5034504;28;20534;-69
2023/01/01 00:15:16;;;;;;;83.20;25.33;;;;;;;;;;5034690;28;20453;-69
2023/01/01 00:17:43;;;;;;;85.47;24.30;;;;;;;;;;5034643;28;20491;-69
2023/01/01 00:20:10;;;;;;;79.87;22.30;;;;;;;;;;5033774;28;20449;-69
2023/01/01 00:22:37;;;;;;;77.40;22.40;;;;;;;;;;5034197;28;20464;-69
2023/01/01 00:25:05;;;;;;;83.07;22.50;;;;;;;;;;5034455;28;20825;-69
2023/01/01 00:27:32;;;;;;;83.47;26.47;;;;;;;;;;5034161;28;21008;-69
2023/01/01 00:30:01;;;;;;;89.43;27.23;;;;;;;;;;5033609;28;20445;-69
2023/01/01 00:32:28;;;;;;;87.60;27.53;;;;;;;;;;5034246;28;20472;-69
2023/01/01 00:34:55;;;;;;;88.73;27.30;;;;;;;;;;5034173;28;20456;-70
2023/01/01 00:37:22;;;;;;;86.17;26.50;;;;;;;;;;5034076;28;20874;-69
2023/01/01 00:39:49;;;;;;;78.97;22.10;;;;;;;;;;5033371;28;20453;-70
2023/01/01 00:42:16;;;;;;;78.60;20.17;;;;;;;;;;5033743;28;20519;-69
2023/01/01 00:44:43;;;;;;;78.73;19.27;;;;;;;;;;5033987;28;20453;-68
2023/01/01 00:47:12;;;;;;;73.83;17.63;;;;;;;;;;5033402;28;20441;-70
2023/01/01 00:49:39;;;;;;;73.77;16.00;;;;;;;;;;5033068;28;20452;-69
2023/01/01 00:52:06;;;;;;;71.20;14.87;;;;;;;;;;5034182;28;20473;-68
2023/01/01 00:54:33;;;;;;;72.73;16.57;;;;;;;;;;5033974;28;20798;-69
2023/01/01 00:57:00;;;;;;;73.30;15.20;;;;;;;;;;5033110;28;20485;-68
2023/01/01 00:59:27;;;;;;;72.63;15.10;;;;;;;;;;5032357;28;20449;-69
2023/01/01 01:01:54;;;;;;;72.37;15.33;;;;;;;;;;5033774;28;20473;-69
2023/01/01 01:04:23;;;;;;;71.63;15.00;;;;;;;;;;5033272;28;20453;-68
2023/01/01 01:06:50;;;;;;;71.10;15.00;;;;;;;;;;5033804;28;20835;-70
2023/01/01 01:09:17;;;;;;;68.57;13.53;;;;;;;;;;5032919;28;20449;-69
2023/01/01 01:11:44;;;;;;;72.77;14.60;;;;;;;;;;5032730;28;20485;-69
2023/01/01 01:14:13;;;;;;;69.30;13.30;;;;;;;;;;5032655;28;20964;-70
2023/01/01 01:16:40;;;;;;;70.77;14.63;;;;;;;;;;5033235;28;20457;-69
2023/01/01 01:19:12;;;;;;;71.70;15.10;;;;;;;;;;5032602;28;21039;-70
2023/01/01 01:21:41;;;;;;;70.50;14.33;;;;;;;;;;5033539;28;20844;-69
2023/01/01 01:24:08;;;;;;;69.10;12.83;;;;;;;;;;5033331;28;20967;-70
2023/01/01 01:26:36;;;;;;;68.53;11.10;;;;;;;;;;5033005;28;20464;-69
2023/01/01 01:29:03;;;;;;;69.57;12.43;;;;;;;;;;5032583;28;20507;-70
2023/01/01 01:31:31;;;;;;;68.77;12.40;;;;;;;;;;5032930;28;20469;-70
2023/01/01 01:33:58;;;;;;;72.50;13.33;;;;;;;;;;5033138;28;20449;-70
2023/01/01 01:36:26;;;;;;;70.63;13.17;;;;;;;;;;5032991;28;20465;-70
2023/01/01 01:38:55;;;;;;;71.13;13.83;;;;;;;;;;5032133;28;21027;-70
2023/01/01 01:41:23;;;;;;;72.30;15.33;;;;;;;;;;5032460;28;20473;-70
2023/01/01 01:43:55;;;;;;;76.27;15.53;;;;;;;;;;5032810;28;20472;-70
2023/01/01 01:46:23;;;;;;;72.23;14.57;;;;;;;;;;5032842;28;20507;-70
2023/01/01 01:48:52;;;;;;;72.57;13.80;;;;;;;;;;5032154;28;20445;-70
2023/01/01 01:51:22;;;;;;;72.00;15.23;;;;;;;;;;5032899;28;20843;-69
2023/01/01 01:53:50;;;;;;;71.57;14.60;;;;;;;;;;5032819;28;20449;-69
2023/01/01 01:56:20;;;;;;;72.57;14.83;;;;;;;;;;5031955;28;20450;-69
2023/01/01 01:58:48;;;;;;;71.80;15.23;;;;;;;;;;5032009;28;20493;-69
2023/01/01 02:01:15;;;;;;;70.07;13.60;;;;;;;;;;5032232;28;20477;-70
2023/01/01 02:03:44;;;;;;;69.17;13.20;;;;;;;;;;5032607;28;20473;-69
2023/01/01 02:06:12;;;;;;;70.97;15.03;;;;;;;;;;5032520;28;20488;-69
2023/01/01 02:08:39;;;;;;;69.60;13.13;;;;;;;;;;5031753;28;20930;-69
2023/01/01 02:11:06;;;;;;;69.73;12.93;;;;;;;;;;5031787;28;20854;-69
2023/01/01 02:13:35;;;;;;;67.60;11.70;;;;;;;;;;5031822;28;20465;-69
2023/01/01 02:16:08;;;;;;;66.20;9.47;;;;;;;;;;5032195;28;20972;-69
2023/01/01 02:18:39;;;;;;;67.13;9.60;;;;;;;;;;5027710;28;20861;-69
2023/01/01 02:21:08;;;;;;;65.00;9.53;;;;;;;;;;5032596;28;20476;-69
2023/01/01 02:23:43;;;;;;;66.17;9.70;;;;;;;;;;5032143;28;20464;-69
2023/01/01 02:26:25;;;;;;;66.17;9.43;;;;;;;;;;5032335;28;20457;-69
2023/01/01 02:28:59;;;;;;;65.57;10.13;;;;;;;;;;5028448;28;20454;-70
2023/01/01 02:31:28;;;;;;;68.63;9.37;;;;;;;;;;5032234;28;20468;-69
2023/01/01 02:33:57;;;;;;;70.37;10.27;;;;;;;;;;5032172;28;20449;-69
2023/01/01 02:36:25;;;;;;;65.00;8.63;;;;;;;;;;5032059;28;20453;-69
2023/01/01 02:38:53;;;;;;;68.87;10.80;;;;;;;;;;5031271;28;20500;-69
2023/01/01 02:41:23;;;;;;;66.70;10.17;;;;;;;;;;5031852;28;20560;-69
2023/01/01 02:43:51;;;;;;;66.60;10.47;;;;;;;;;;5031902;28;20459;-70
2023/01/01 02:46:20;;;;;;;67.80;10.70;;;;;;;;;;5032261;28;20449;-69
2023/01/01 02:48:48;;;;;;;65.87;10.40;;;;;;;;;;5031167;28;20527;-69
2023/01/01 02:51:21;;;;;;;65.13;9.97;;;;;;;;;;5031450;28;20469;-70
2023/01/01 02:53:53;;;;;;;64.27;9.27;;;;;;;;;;5031807;28;20453;-70
2023/01/01 02:56:25;;;;;;;65.30;9.50;;;;;;;;;;5031989;28;20479;-70
2023/01/01 03:01:46;;;;;;;65.60;9.30;;;;;;;;;;5031716;28;20491;-69
2023/01/01 03:04:20;;;;;;;68.67;10.60;;;;;;;;;;5031743;28;20453;-69
2023/01/01 03:06:51;;;;;;;65.67;10.17;;;;;;;;;;5032018;28;20794;-69
2023/01/01 03:09:24;;;;;;;65.60;9.47;;;;;;;;;;5031146;28;20449;-70
2023/01/01 03:11:54;;;;;;;68.67;11.00;;;;;;;;;;5031675;28;20489;-69
2023/01/01 03:14:24;;;;;;;64.77;9.60;;;;;;;;;;5031673;28;20461;-69
2023/01/01 03:16:55;;;;;;;66.10;9.60;;;;;;;;;;5031551;28;20829;-70
2023/01/01 03:19:23;;;;;;;64.60;9.30;;;;;;;;;;5030910;28;20882;-69
2023/01/01 03:21:52;;;;;;;66.50;9.57;;;;;;;;;;5031708;28;20469;-70
2023/01/01 03:24:22;;;;;;;65.27;8.67;;;;;;;;;;5031554;28;20457;-69
2023/01/01 03:26:50;;;;;;;64.90;9.07;;;;;;;;;;5031707;28;20445;-70
2023/01/01 03:29:18;;;;;;;65.17;8.50;;;;;;;;;;5030812;28;20459;-70
2023/01/01 03:31:48;;;;;;;65.07;8.77;;;;;;;;;;5031040;28;20530;-70
2023/01/01 03:34:18;;;;;;;65.27;9.23;;;;;;;;;;5031640;28;20449;-69
2023/01/01 03:36:48;;;;;;;63.57;8.83;;;;;;;;;;5031690;28;20453;-69
2023/01/01 03:39:18;;;;;;;64.90;9.80;;;;;;;;;;5034175;28;20480;-70
2023/01/01 03:41:48;;;;;;;64.20;8.70;;;;;;;;;;5035105;28;20468;-70
2023/01/01 03:44:17;;;;;;;67.67;10.27;;;;;;;;;;5035432;28;20448;-69
2023/01/01 03:46:44;;;;;;;64.60;8.60;;;;;;;;;;5035352;28;20518;-70
2023/01/01 03:49:12;;;;;;;67.50;9.30;;;;;;;;;;5034381;28;20449;-69
2023/01/01 03:51:48;;;;;;;64.07;8.97;;;;;;;;;;5035109;28;20468;-69
2023/01/01 03:54:22;;;;;;;64.97;8.90;;;;;;;;;;5034984;28;20453;-69
2023/01/01 03:56:53;;;;;;;66.17;8.93;;;;;;;;;;5035227;28;20539;-69
2023/01/01 03:59:21;;;;;;;64.30;8.57;;;;;;;;;;5034277;28;20484;-70
2023/01/01 04:01:50;;;;;;;64.80;8.57;;;;;;;;;;5035003;28;21282;-70
2023/01/01 04:04:18;;;;;;;64.53;7.73;;;;;;;;;;5034686;28;20449;-69
2023/01/01 04:06:47;;;;;;;65.40;8.23;;;;;;;;;;5035257;28;20820;-69
2023/01/01 04:09:16;;;;;;;63.77;7.47;;;;;;;;;;5033861;28;20445;-70
2023/01/01 04:12:03;;;;;;;63.20;7.80;;;;;;;;;;5034628;28;20469;-69
2023/01/01 04:14:31;;;;;;;65.50;9.17;;;;;;;;;;5034744;28;20522;-69
2023/01/01 04:16:59;;;;;;;64.00;9.60;;;;;;;;;;5034559;28;20445;-69
2023/01/01 04:19:26;;;;;;;64.40;8.07;;;;;;;;;;5033576;28;20492;-70
2023/01/01 04:21:55;;;;;;;62.97;8.23;;;;;;;;;;5034620;28;20476;-69
2023/01/01 04:24:22;;;;;;;67.50;9.80;;;;;;;;;;5034257;28;20472;-69
2023/01/01 04:26:50;;;;;;;65.60;9.17;;;;;;;;;;5034493;28;20511;-70
2023/01/01 04:29:17;;;;;;;66.23;8.57;;;;;;;;;;5033682;28;20449;-70
2023/01/01 04:31:44;;;;;;;67.17;9.53;;;;;;;;;;5034213;28;20473;-69
2023/01/01 04:34:12;;;;;;;66.30;9.97;;;;;;;;;;5034667;28;20453;-70
2023/01/01 04:36:39;;;;;;;67.93;9.90;;;;;;;;;;5034524;28;20453;-69
2023/01/01 04:39:07;;;;;;;66.27;9.10;;;;;;;;;;5033042;28;20481;-67
2023/01/01 04:41:34;;;;;;;64.80;9.40;;;;;;;;;;5034098;28;20465;-67
2023/01/01 04:44:01;;;;;;;65.60;9.37;;;;;;;;;;5034019;28;20441;-67
2023/01/01 04:46:29;;;;;;;66.53;8.50;;;;;;;;;;5033848;28;20946;-68
2023/01/01 04:48:56;;;;;;;64.57;7.57;;;;;;;;;;5032423;28;20446;-67
2023/01/01 04:51:23;;;;;;;63.67;7.27;;;;;;;;;;5033816;28;20484;-67
2023/01/01 04:53:50;;;;;;;65.77;6.77;;;;;;;;;;5033784;28;20453;-67
2023/01/01 04:56:20;;;;;;;63.90;7.63;;;;;;;;;;5033945;28;20449;-67
2023/01/01 04:58:47;;;;;;;60.70;6.00;;;;;;;;;;5032977;28;20485;-67
2023/01/01 05:01:16;;;;;;;62.87;6.70;;;;;;;;;;5034069;28;20479;-68
2023/01/01 05:03:43;;;;;;;62.30;5.70;;;;;;;;;;5033753;28;20487;-67
2023/01/01 05:06:11;;;;;;;63.20;5.90;;;;;;;;;;5033771;28;20456;-67
2023/01/01 05:08:39;;;;;;;63.30;5.87;;;;;;;;;;5033029;28;20467;-69
2023/01/01 05:11:07;;;;;;;59.30;4.67;;;;;;;;;;5033489;28;20509;-69
2023/01/01 05:13:36;;;;;;;61.53;5.60;;;;;;;;;;5033569;28;20951;-69
2023/01/01 05:16:03;;;;;;;61.73;4.90;;;;;;;;;;5033611;28;20471;-69
2023/01/01 05:18:30;;;;;;;61.30;5.53;;;;;;;;;;5033312;28;20491;-70
2023/01/01 05:21:00;;;;;;;62.10;6.20;;;;;;;;;;5033147;28;20465;-69
2023/01/01 05:23:27;;;;;;;59.27;4.33;;;;;;;;;;5033777;28;20452;-69
2023/01/01 05:25:54;;;;;;;61.00;5.20;;;;;;;;;;5033322;28;20449;-69
2023/01/01 05:28:22;;;;;;;61.33;5.03;;;;;;;;;;5033093;28;20942;-69
2023/01/01 05:30:50;;;;;;;60.47;5.17;;;;;;;;;;5032617;28;20560;-69
2023/01/01 05:33:17;;;;;;;60.60;5.37;;;;;;;;;;5033080;28;20954;-69
2023/01/01 05:35:44;;;;;;;59.70;4.50;;;;;;;;;;5033278;28;20449;-69
2023/01/01 05:38:12;;;;;;;59.23;4.37;;;;;;;;;;5032921;28;20445;-69
2023/01/01 05:40:39;;;;;;;60.03;4.80;;;;;;;;;;5032200;28;20449;-70
2023/01/01 05:43:06;;;;;;;60.20;4.40;;;;;;;;;;5033131;28;20441;-70
2023/01/01 05:45:34;;;;;;;61.50;5.10;;;;;;;;;;5032984;28;20456;-70
2023/01/01 05:48:03;;;;;;;60.57;4.10;;;;;;;;;;5032919;28;20449;-70
2023/01/01 05:50:30;;;;;;;61.47;4.37;;;;;;;;;;5031903;28;20536;-69
2023/01/01 05:52:57;;;;;;;59.77;4.20;;;;;;;;;;5032990;28;20453;-70
2023/01/01 05:55:24;;;;;;;63.53;4.10;;;;;;;;;;5032597;28;20547;-69
2023/01/01 05:57:51;;;;;;;59.30;3.87;;;;;;;;;;5032896;28;20949;-69
2023/01/01 06:00:19;;;;;;;60.20;4.63;;;;;;;;;;5031483;28;20523;-70
2023/01/01 06:02:46;;;;;;;59.83;4.30;;;;;;;;;;5032619;28;20473;-70
2023/01/01 06:05:14;;;;;;;61.90;4.30;;;;;;;;;;5032675;28;20476;-69
2023/01/01 06:07:41;;;;;;;60.40;4.57;;;;;;;;;;5032483;28;20451;-70
2023/01/01 06:10:09;;;;;;;59.37;4.10;;;;;;;;;;5031889;28;20442;-70
2023/01/01 06:12:36;;;;;;;60.90;4.17;;;;;;;;;;5032247;28;20477;-70
2023/01/01 06:15:03;;;;;;;61.47;4.43;;;;;;;;;;5032674;28;20472;-69
2023/01/01 06:17:30;;;;;;;60.37;3.97;;;;;;;;;;5032347;28;20453;-70
2023/01/01 06:19:57;;;;;;;60.90;4.10;;;;;;;;;;5031557;28;20852;-70
2023/01/01 06:22:26;;;;;;;61.70;3.80;;;;;;;;;;5032069;28;20464;-70
2023/01/01 06:24:53;;;;;;;61.57;4.20;;;;;;;;;;5032482;28;20491;-70
2023/01/01 06:27:20;;;;;;;59.20;3.80;;;;;;;;;;5032333;28;20460;-70
2023/01/01 06:29:47;;;;;;;61.17;4.10;;;;;;;;;;5031508;28;20458;-70
2023/01/01 06:32:14;;;;;;;59.30;4.20;;;;;;;;;;5032096;28;20848;-70
2023/01/01 06:34:41;;;;;;;59.57;4.00;;;;;;;;;;5032150;28;20464;-70
2023/01/01 06:37:08;;;;;;;59.60;4.10;;;;;;;;;;5032287;28;20455;-70
2023/01/01 06:39:37;;;;;;;59.13;3.60;;;;;;;;;;5031411;28;20870;-70
2023/01/01 06:42:04;;;;;;;60.10;4.40;;;;;;;;;;5032226;28;20469;-69
2023/01/01 06:44:31;;;;;;;60.67;4.10;;;;;;;;;;5031780;28;20949;-70
2023/01/01 06:46:58;;;;;;;59.47;4.80;;;;;;;;;;5031995;28;20463;-70
2023/01/01 06:49:25;;;;;;;63.10;4.70;;;;;;;;;;5031032;28;20451;-70
2023/01/01 06:51:52;;;;;;;59.87;4.57;;;;;;;;;;5032031;28;20841;-69
2023/01/01 06:54:19;;;;;;;59.93;4.37;;;;;;;;;;5032126;28;20451;-70
2023/01/01 06:56:48;;;;;;;59.53;4.47;;;;;;;;;;5031819;28;20453;-70
2023/01/01 06:59:16;;;;;;;59.80;4.00;;;;;;;;;;5031025;28;20584;-70
2023/01/01 07:01:43;;;;;;;61.57;4.50;;;;;;;;;;5031673;28;20473;-70
2023/01/01 07:04:11;;;;;;;58.70;4.27;;;;;;;;;;5032128;28;20828;-70
2023/01/01 07:06:39;;;;;;;60.50;4.07;;;;;;;;;;5031928;28;20453;-69
2023/01/01 07:09:06;;;;;;;62.00;3.90;;;;;;;;;;5030983;28;20452;-69
2023/01/01 07:11:34;;;;;;;61.70;4.00;;;;;;;;;;5031537;28;20487;-70
2023/01/01 07:14:02;;;;;;;58.37;3.47;;;;;;;;;;5035075;28;20448;-70
2023/01/01 07:16:30;;;;;;;60.07;3.80;;;;;;;;;;5035625;28;20828;-70
2023/01/01 07:18:57;;;;;;;63.93;4.33;;;;;;;;;;5035005;28;20449;-70
2023/01/01 07:21:26;;;;;;;59.47;4.37;;;;;;;;;;5035819;28;20481;-70
2023/01/01 07:23:55;;;;;;;61.83;3.93;;;;;;;;;;5035639;28;20448;-70
2023/01/01 07:26:22;;;;;;;59.47;4.13;;;;;;;;;;5035693;28;20457;-70
2023/01/01 07:28:49;;;;;;;59.40;4.20;;;;;;;;;;5034641;28;20980;-69
2023/01/01 07:31:17;;;;;;;61.73;4.90;;;;;;;;;;5035472;28;20477;-70
2023/01/01 07:33:44;;;;;;;64.93;4.00;;;;;;;;;;5035629;28;20481;-70
2023/01/01 07:36:12;;;;;;;59.20;3.53;;;;;;;;;;5035592;28;20457;-70
2023/01/01 07:38:39;;;;;;;61.67;4.27;;;;;;;;;;5034623;28;20457;-69
2023/01/01 07:41:06;;;;;;;59.50;4.23;;;;;;;;;;5035567;28;20495;-70
2023/01/01 07:43:33;;;;;;;59.17;4.13;;;;;;;;;;5035096;28;20453;-69
2023/01/01 07:46:00;;;;;;;61.57;3.90;;;;;;;;;;5035358;28;20449;-70
2023/01/01 07:48:29;;;;;;;59.10;4.10;;;;;;;;;;5035188;28;20467;-70
2023/01/01 07:50:56;;;;;;;61.00;4.00;;;;;;;;;;5034547;28;20467;-70
2023/01/01 07:53:23;;;;;;;58.77;3.50;;;;;;;;;;5035039;28;20961;-70
2023/01/01 07:55:50;;;;;;;60.43;4.90;;;;;;;;;;5034974;28;20463;-70
2023/01/01 07:58:17;;;;;;;63.00;5.03;;;;;;;;;;5034704;28;20803;-69
2023/01/01 08:00:47;;;;;;;66.00;5.43;;;;;;;;;;5034138;28;20488;-70
2023/01/01 08:03:14;;;;;;;59.57;4.53;;;;;;;;;;5034833;28;20448;-70
2023/01/01 08:05:42;;;;;;;60.23;4.87;;;;;;;;;;5035015;28;20448;-70
2023/01/01 08:08:09;;;;;;;61.60;5.83;;;;;;;;;;5034719;28;20453;-69
2023/01/01 08:10:36;;;;;;;62.37;5.80;;;;;;;;;;5034300;28;20940;-69
2023/01/01 08:13:04;;;;;;;62.83;5.33;;;;;;;;;;5034704;28;20472;-70
2023/01/01 08:15:32;;;;;;;61.10;5.00;;;;;;;;;;5034560;28;20977;-69
2023/01/01 08:17:59;;;;;;;61.03;4.87;;;;;;;;;;5034657;28;20821;-70
2023/01/01 08:20:26;;;;;;;62.10;5.50;;;;;;;;;;5033779;28;20996;-70
2023/01/01 08:22:55;;;;;;;61.57;5.23;;;;;;;;;;5034452;28;20475;-70
2023/01/01 08:25:22;;;;;;;61.20;5.10;;;;;;;;;;5034390;28;20451;-70
2023/01/01 08:27:49;;;;;;;61.53;5.10;;;;;;;;;;5034765;28;20459;-70
2023/01/01 08:30:16;;;;;;;61.20;5.40;;;;;;;;;;5033785;28;20456;-70
2023/01/01 08:32:44;;;;;;;61.87;5.10;;;;;;;;;;5034370;28;20473;-70
2023/01/01 08:35:11;;;;;;;62.17;6.27;;;;;;;;;;5034432;28;20476;-70
2023/01/01 08:37:38;;;;;;;61.57;6.20;;;;;;;;;;5034492;28;20760;-68
2023/01/01 08:40:07;;;;;;;63.03;5.93;;;;;;;;;;5033213;28;20504;-68
2023/01/01 08:42:34;;;;;;;61.43;5.97;;;;;;;;;;5034046;28;20848;-67
2023/01/01 08:45:01;;;;;;;60.60;5.10;;;;;;;;;;5034302;28;20453;-68
2023/01/01 08:47:29;;;;;;;63.37;5.60;;;;;;;;;;5034149;28;20449;-67
2023/01/01 08:49:56;;;;;;;59.57;5.30;;;;;;;;;;5033552;28;20957;-68
2023/01/01 08:52:23;;;;;;;61.77;5.67;;;;;;;;;;5033842;28;20865;-68
2023/01/01 08:54:50;;;;;;;61.07;5.43;;;;;;;;;;5034085;28;20480;-68
2023/01/01 08:57:19;;;;;;;60.40;5.90;;;;;;;;;;5034023;28;20449;-68
2023/01/01 08:59:46;;;;;;;62.87;5.93;;;;;;;;;;5032847;28;21000;-68
2023/01/01 09:02:13;;;;;;;64.07;6.17;;;;;;;;;;5033668;28;20495;-67
2023/01/01 09:04:40;;;;;;;64.77;8.20;;;;;;;;;;5033631;28;20460;-68
2023/01/01 09:07:07;;;;;;;63.00;6.43;;;;;;;;;;5033050;28;20453;-67
2023/01/01 09:09:34;;;;;;;60.70;5.57;;;;;;;;;;5032869;28;20457;-67
2023/01/01 09:12:04;;;;;;;61.80;5.73;;;;;;;;;;5033632;28;21011;-67
2023/01/01 09:14:33;;;;;;;62.73;5.87;;;;;;;;;;5033856;28;20462;-68
2023/01/01 09:17:00;;;;;;;61.93;5.70;;;;;;;;;;5033681;28;20456;-68
2023/01/01 09:19:28;;;;;;;61.83;6.13;;;;;;;;;;5032477;28;20449;-68
2023/01/01 09:21:55;;;;;;;62.67;7.07;;;;;;;;;;5033329;28;21001;-68
2023/01/01 09:24:22;;;;;;;66.43;6.10;;;;;;;;;;5033467;28;20445;-68
2023/01/01 09:26:49;;;;;;;61.77;5.60;;;;;;;;;;5033249;28;20453;-68
2023/01/01 09:29:19;;;;;;;62.77;6.50;;;;;;;;;;5032246;28;20836;-68
2023/01/01 09:31:47;;;;;;;63.60;5.50;;;;;;;;;;5032761;28;20469;-68
2023/01/01 09:34:15;;;;;;;61.77;5.60;;;;;;;;;;5032913;28;20829;-68
2023/01/01 09:36:42;;;;;;;60.83;5.17;;;;;;;;;;5032518;28;20965;-68
2023/01/01 09:39:11;;;;;;;61.40;5.40;;;;;;;;;;5032267;28;20456;-67
2023/01/01 09:41:44;;;;;;;61.70;5.10;;;;;;;;;;5032083;28;20484;-67
2023/01/01 09:44:17;;;;;;;62.20;6.07;;;;;;;;;;5032595;28;20441;-68
2023/01/01 09:46:45;;;;;;;60.57;5.47;;;;;;;;;;5032389;28;20742;-68
2023/01/01 09:49:14;;;;;;;61.20;6.00;;;;;;;;;;5032203;28;20455;-68
2023/01/01 09:51:43;;;;;;;61.37;5.90;;;;;;;;;;5032871;28;20477;-68
2023/01/01 09:54:13;;;;;;;65.73;6.37;;;;;;;;;;5032833;28;20445;-68
2023/01/01 09:56:41;;;;;;;60.37;5.20;;;;;;;;;;5032374;28;20453;-67
2023/01/01 09:59:09;;;;;;;61.13;4.90;;;;;;;;;;5031636;28;20449;-68
2023/01/01 10:01:40;;;;;;;59.27;4.70;;;;;;;;;;5032188;28;20493;-68
2023/01/01 10:04:17;;;;;;;60.77;5.43;;;;;;;;;;5032747;28;20942;-68
2023/01/01 10:06:52;;;;;;;60.07;5.13;;;;;;;;;;5032762;28;20445;-68
2023/01/01 10:09:21;;;;;;;60.27;4.90;;;;;;;;;;5031615;28;20457;-67
2023/01/01 10:11:53;;;;;;;61.07;5.87;;;;;;;;;;5032408;28;20487;-68
2023/01/01 10:14:23;;;;;;;64.33;5.87;;;;;;;;;;5032588;28;20457;-67
2023/01/01 10:16:52;;;;;;;61.10;5.07;;;;;;;;;;5032260;28;20961;-68
2023/01/01 10:19:23;;;;;;;60.50;5.60;;;;;;;;;;5031493;28;20964;-68
2023/01/01 10:21:53;;;;;;;63.37;5.43;;;;;;;;;;5031958;28;20989;-67
2023/01/01 10:24:29;;;;;;;60.67;5.17;;;;;;;;;;5032428;28;20824;-68
2023/01/01 10:26:56;;;;;;;61.13;5.40;;;;;;;;;;5032392;28;20953;-68
2023/01/01 10:29:27;;;;;;;61.77;6.07;;;;;;;;;;5031418;28;20448;-67
2023/01/01 10:31:55;;;;;;;61.63;5.00;;;;;;;;;;5032168;28;20942;-68
2023/01/01 10:34:24;;;;;;;61.37;5.37;;;;;;;;;;5032009;28;20453;-68
2023/01/01 10:36:54;;;;;;;61.20;5.67;;;;;;;;;;5032058;28;20456;-68
2023/01/01 10:39:21;;;;;;;61.70;5.00;;;;;;;;;;5031523;28;20449;-67
2023/01/01 10:41:49;;;;;;;59.90;4.77;;;;;;;;;;5031923;28;20511;-68
2023/01/01 10:44:18;;;;;;;60.10;4.73;;;;;;;;;;5031834;28;20460;-68
2023/01/01 10:46:47;;;;;;;62.57;5.53;;;;;;;;;;5031721;28;20449;-68
2023/01/01 10:49:15;;;;;;;60.73;5.40;;;;;;;;;;5031040;28;20463;-68
2023/01/01 10:51:44;;;;;;;63.67;5.10;;;;;;;;;;5031928;28;20469;-68
2023/01/01 10:54:33;;;;;;;60.37;4.67;;;;;;;;;;5032155;28;20453;-68
2023/01/01 10:57:00;;;;;;;62.97;5.23;;;;;;;;;;5031814;28;20445;-68
2023/01/01 10:59:35;;;;;;;65.30;5.93;;;;;;;;;;5030798;28;20445;-68
2023/01/01 11:02:15;;;;;;;61.00;5.80;;;;;;;;;;5031679;28;20495;-68
2023/01/01 11:04:42;;;;;;;63.53;5.30;;;;;;;;;;5031802;28;20457;-67
2023/01/01 11:07:09;;;;;;;62.50;5.43;;;;;;;;;;5031640;28;20980;-68
2023/01/01 11:09:38;;;;;;;60.00;4.77;;;;;;;;;;5030762;28;20455;-67
2023/01/01 11:12:06;;;;;;;61.17;4.83;;;;;;;;;;5031494;28;20548;-68
2023/01/01 11:14:37;;;;;;;59.17;3.87;;;;;;;;;;5031565;28;20892;-68
2023/01/01 11:17:05;;;;;;;62.53;4.97;;;;;;;;;;5031552;28;20968;-68
2023/01/01 11:19:33;;;;;;;60.20;4.50;;;;;;;;;;5030838;28;20486;-68
2023/01/01 11:22:00;;;;;;;60.47;4.97;;;;;;;;;;5031502;28;20571;-69
2023/01/01 11:24:28;;;;;;;59.87;5.30;;;;;;;;;;5031466;28;20457;-68
2023/01/01 11:27:12;;;;;;;60.37;4.87;;;;;;;;;;5031900;28;20464;-68
2023/01/01 11:29:39;;;;;;;61.10;4.57;;;;;;;;;;5030692;28;20452;-68
2023/01/01 11:32:07;;;;;;;63.80;5.37;;;;;;;;;;5031458;28;20492;-69
2023/01/01 11:34:36;;;;;;;61.30;4.60;;;;;;;;;;5031385;28;20942;-68
2023/01/01 11:37:24;;;;;;;59.37;4.73;;;;;;;;;;5031260;28;20445;-68
2023/01/01 11:39:53;;;;;;;61.07;5.20;;;;;;;;;;5030606;28;20456;-68
2023/01/01 11:42:22;;;;;;;60.67;5.33;;;;;;;;;;5031316;28;20525;-68
2023/01/01 11:44:51;;;;;;;60.67;5.17;;;;;;;;;;5031709;28;20445;-68
2023/01/01 11:47:24;;;;;;;60.47;5.33;;;;;;;;;;5031212;28;20467;-68
2023/01/01 11:49:55;;;;;;;60.10;5.00;;;;;;;;;;5030762;28;20447;-69
2023/01/01 11:52:29;;;;;;;62.03;5.60;;;;;;;;;;5030891;28;20479;-68
2023/01/01 11:55:01;;;;;;;59.77;4.80;;;;;;;;;;5031199;28;20454;-68
2023/01/01 11:57:30;;;;;;;62.03;5.57;;;;;;;;;;5031323;28;20445;-68
2023/01/01 12:00:02;;;;;;;61.70;5.77;;;;;;;;;;5033376;28;20539;-69
2023/01/01 12:02:32;;;;;;;61.60;4.87;;;;;;;;;;5034755;28;20997;-68
2023/01/01 12:05:05;;;;;;;60.80;4.83;;;;;;;;;;5035038;28;20464;-68
2023/01/01 12:07:34;;;;;;;61.17;4.90;;;;;;;;;;5034893;28;20456;-68
2023/01/01 12:10:03;;;;;;;60.33;5.30;;;;;;;;;;5033859;28;20459;-68
2023/01/01 12:12:35;;;;;;;60.87;5.00;;;;;;;;;;5034569;28;20493;-68
2023/01/01 12:15:04;;;;;;;61.20;5.60;;;;;;;;;;5034906;28;20489;-68
2023/01/01 12:17:34;;;;;;;61.60;5.80;;;;;;;;;;5034913;28;20953;-68
2023/01/01 12:20:03;;;;;;;59.67;5.07;;;;;;;;;;5033937;28;20824;-68
2023/01/01 12:22:31;;;;;;;60.43;5.47;;;;;;;;;;5034347;28;20911;-68
2023/01/01 12:24:58;;;;;;;62.90;5.77;;;;;;;;;;5034386;28;20950;-68
2023/01/01 12:27:39;;;;;;;63.20;5.00;;;;;;;;;;5034659;28;20445;-68
2023/01/01 12:30:11;;;;;;;61.30;5.40;;;;;;;;;;5033739;28;20453;-68
2023/01/01 12:33:02;;;;;;;59.83;4.70;;;;;;;;;;5034351;28;20471;-68
2023/01/01 12:35:34;;;;;;;61.00;5.60;;;;;;;;;;5028418;28;20453;-68
2023/01/01 12:38:06;;;;;;;60.33;4.70;;;;;;;;;;5034535;28;20448;-68
2023/01/01 12:40:39;;;;;;;60.67;5.10;;;;;;;;;;5033434;28;20445;-68
2023/01/01 12:43:09;;;;;;;64.20;5.57;;;;;;;;;;5034252;28;20459;-68
2023/01/01 12:45:45;;;;;;;64.97;8.67;;;;;;;;;;5034340;28;20449;-68
2023/01/01 12:48:27;;;;;;;60.50;4.50;;;;;;;;;;5034228;28;20449;-68
2023/01/01 12:50:58;;;;;;;61.90;5.30;;;;;;;;;;5033355;28;20468;-68
2023/01/01 12:53:29;;;;;;;63.73;4.50;;;;;;;;;;5034006;28;20476;-68
2023/01/01 12:56:15;;;;;;;61.60;4.57;;;;;;;;;;5033892;28;20960;-68
2023/01/01 12:58:45;;;;;;;59.67;4.40;;;;;;;;;;5033374;28;20449;-69
2023/01/01 13:01:13;;;;;;;60.33;5.13;;;;;;;;;;5033885;28;20489;-68
2023/01/01 13:03:47;;;;;;;60.47;5.10;;;;;;;;;;5033851;28;20445;-68
2023/01/01 13:06:15;;;;;;;60.30;4.50;;;;;;;;;;5033808;28;20818;-68
2023/01/01 13:08:42;;;;;;;61.70;4.93;;;;;;;;;;5032902;28;20445;-68
2023/01/01 13:11:10;;;;;;;61.67;4.30;;;;;;;;;;5032644;28;20556;-68
2023/01/01 13:13:37;;;;;;;61.40;5.77;;;;;;;;;;5033776;28;20449;-68
2023/01/01 13:16:06;;;;;;;63.40;4.70;;;;;;;;;;5033696;28;20449;-68
2023/01/01 13:18:34;;;;;;;61.97;5.50;;;;;;;;;;5032914;28;20445;-67
2023/01/01 13:21:07;;;;;;;63.80;4.20;;;;;;;;;;5033222;28;20488;-68
2023/01/01 13:23:44;;;;;;;60.30;4.53;;;;;;;;;;5033425;28;20461;-68
2023/01/01 13:26:26;;;;;;;61.23;4.00;;;;;;;;;;5033528;28;20448;-68
2023/01/01 13:29:08;;;;;;;62.90;4.70;;;;;;;;;;5012392;28;20463;-68
2023/01/01 13:31:50;;;;;;;61.03;4.50;;;;;;;;;;5032398;28;20504;-69
2023/01/01 13:34:39;;;;;;;63.00;4.07;;;;;;;;;;5032968;28;20455;-69
2023/01/01 13:37:26;;;;;;;61.47;4.60;;;;;;;;;;5033173;28;20475;-68
2023/01/01 13:39:54;;;;;;;61.73;4.03;;;;;;;;;;5032159;28;20451;-68
2023/01/01 13:42:39;;;;;;;60.03;4.60;;;;;;;;;;5033103;28;20493;-68
2023/01/01 13:45:12;;;;;;;64.97;4.90;;;;;;;;;;5033156;28;20453;-68
2023/01/01 13:47:47;;;;;;;60.73;4.40;;;;;;;;;;5033055;28;20450;-68
2023/01/01 13:50:19;;;;;;;61.90;4.40;;;;;;;;;;5031959;28;20456;-67
2023/01/01 13:52:55;;;;;;;62.80;4.47;;;;;;;;;;5033005;28;20461;-68
2023/01/01 13:55:43;;;;;;;62.40;5.27;;;;;;;;;;5032944;28;20449;-68
2023/01/01 13:58:24;;;;;;;65.77;4.83;;;;;;;;;;4999917;28;20468;-68
2023/01/01 14:01:03;;;;;;;60.77;6.17;;;;;;;;;;5031755;28;20465;-68
2023/01/01 14:03:35;;;;;;;61.40;5.10;;;;;;;;;;5032782;28;20445;-68
2023/01/01 14:06:06;;;;;;;61.13;5.30;;;;;;;;;;5032865;28;20829;-68
2023/01/01 14:08:34;;;;;;;64.23;5.47;;;;;;;;;;5032136;28;20449;-67
2023/01/01 14:11:02;;;;;;;63.20;5.63;;;;;;;;;;5032272;28;20481;-68
2023/01/01 14:13:31;;;;;;;61.97;6.27;;;;;;;;;;5032492;28;20457;-68
2023/01/01 14:15:59;;;;;;;62.77;5.90;;;;;;;;;;5032597;28;20552;-68
2023/01/01 14:18:32;;;;;;;64.10;5.63;;;;;;;;;;5032188;28;20460;-68
2023/01/01 14:20:59;;;;;;;64.73;6.20;;;;;;;;;;5032110;28;20477;-68
2023/01/01 14:23:30;;;;;;;63.50;6.20;;;;;;;;;;5032281;28;20827;-69
2023/01/01 14:25:58;;;;;;;64.63;6.00;;;;;;;;;;5032245;28;20444;-68
2023/01/01 14:28:26;;;;;;;63.20;6.37;;;;;;;;;;5032265;28;20449;-69
2023/01/01 14:30:53;;;;;;;61.80;5.27;;;;;;;;;;5031686;28;20465;-69
2023/01/01 14:33:25;;;;;;;61.83;5.67;;;;;;;;;;5032132;28;20445;-68
2023/01/01 14:35:52;;;;;;;65.07;5.90;;;;;;;;;;5032161;28;20477;-68
2023/01/01 14:38:24;;;;;;;64.10;5.90;;;;;;;;;;5031918;28;20453;-68
2023/01/01 14:41:09;;;;;;;62.47;6.17;;;;;;;;;;5031590;28;20468;-68
2023/01/01 14:43:37;;;;;;;63.30;5.60;;;;;;;;;;5032052;28;20445;-68
2023/01/01 14:46:05;;;;;;;61.70;5.60;;;;;;;;;;5031995;28;20449;-68